Time;durP1;ratioP1;P1;durP2;ratioP2;P2;SDS_P1;SDS_P2;PMS_P1;PMS_P2;Temp;Humidity;BMP_temperature;BMP_pressure;BME280_temperature;BME280_humidity;BME280_pressure;Samples;Min_cycle;Max_cycle;Signal;HPM_P1;HPM_P2
2023/09/24 00:00:54;;;;;;;2.90;1.90;;;;;;;5.12;100.00;96626.47;7413633;19;20384;-94
2023/09/24 00:03:33;;;;;;;2.50;1.50;;;;;;;5.04;100.00;96645.44;7416309;19;20392;-93
2023/09/24 00:06:14;;;;;;;2.60;1.50;;;;;;;3.91;100.00;96429.88;7420780;19;20401;-94
2023/09/24 00:09:05;;;;;;;1.83;1.23;;;;;;;5.06;100.00;96635.44;7412305;19;20385;-94
2023/09/24 00:11:57;;;;;;;1.50;1.40;;;;;;;5.08;100.00;96632.56;7412114;19;20381;-94
2023/09/24 00:15:00;;;;;;;1.70;1.50;;;;;;;4.71;100.00;96624.38;7411978;19;20416;-93
2023/09/24 00:17:54;;;;;;;3.30;1.60;;;;;;;4.86;100.00;96630.50;7413571;19;20380;-94
2023/09/24 00:20:57;;;;;;;1.63;1.50;;;;;;;4.83;100.00;96639.69;7413365;19;20520;-94
2023/09/24 00:23:48;;;;;;;1.83;1.60;;;;;;;4.76;100.00;96623.53;7412365;19;20381;-94
2023/09/24 00:26:30;;;;;;;3.27;1.40;;;;;;;3.70;100.00;96463.31;7419548;19;20457;-96
2023/09/24 00:29:11;;;;;;;1.50;1.40;;;;;;;3.88;100.00;96487.97;7425821;19;20380;-95
2023/09/24 00:31:57;;;;;;;1.60;1.50;;;;;;;5.00;100.00;96647.06;7416631;19;20388;-95
2023/09/24 00:34:41;;;;;;;1.50;1.40;;;;;;;4.10;100.00;96499.47;7415594;19;20419;-94
2023/09/24 00:37:23;;;;;;;2.43;1.80;;;;;;;3.44;100.00;96440.06;7414669;19;20412;-94
2023/09/24 00:40:27;;;;;;;3.03;2.40;;;;;;;4.55;100.00;96651.03;7411548;19;20476;-95
2023/09/24 00:43:57;;;;;;;1.97;1.23;;;;;;;3.14;100.00;96435.91;7411197;19;20408;-95
2023/09/24 00:47:28;;;;;;;1.40;1.30;;;;;;;2.79;100.00;96340.38;7412014;19;20984;-94
2023/09/24 00:50:41;;;;;;;3.37;2.00;;;;;;;3.34;100.00;96450.63;7416451;19;20413;-94
2023/09/24 00:53:12;;;;;;;1.57;1.47;;;;;;;4.55;100.00;96633.47;7415285;19;20389;-94
2023/09/24 00:55:41;;;;;;;1.40;1.30;;;;;;;2.93;100.00;96390.91;7412814;19;20420;-94
2023/09/24 00:58:26;;;;;;;2.00;1.80;;;;;;;4.18;100.00;96636.75;7407985;19;20399;-94
2023/09/24 01:00:54;;;;;;;1.47;1.37;;;;;;;4.26;100.00;96638.75;7409588;19;20400;-95
2023/09/24 01:03:39;;;;;;;3.23;1.70;;;;;;;3.21;100.00;96496.47;7410044;19;20392;-95
2023/09/24 01:06:07;;;;;;;1.87;1.60;;;;;;;2.92;100.00;96443.41;7411735;19;20377;-95
2023/09/24 01:08:48;;;;;;;1.83;1.40;;;;;;;3.61;100.00;96557.28;7414103;19;20397;-94
2023/09/24 01:11:20;;;;;;;1.57;1.47;;;;;;;4.35;100.00;96631.06;7413050;19;20432;-94
2023/09/24 01:13:52;;;;;;;1.97;1.60;;;;;;;4.01;100.00;96573.63;7411161;19;20424;-94
2023/09/24 01:16:26;;;;;;;2.90;1.63;;;;;;;4.57;100.00;96654.94;7410228;19;20384;-94
2023/09/24 01:19:01;;;;;;;3.13;1.20;;;;;;;3.44;100.00;96491.53;7410492;19;20384;-94
2023/09/24 01:21:50;;;;;;;1.73;1.30;;;;;;;4.53;100.00;96658.34;7409386;19;20412;-93
2023/09/24 01:24:56;;;;;;;4.50;1.57;;;;;;;4.38;100.00;96633.13;7410851;19;20420;-93
2023/09/24 01:28:49;;;;;;;1.33;1.23;;;;;;;2.45;100.00;96366.53;7409114;19;20399;-93
2023/09/24 01:31:49;;;;;;;3.17;1.50;;;;;;;4.31;100.00;96669.34;7414023;19;20384;-93
2023/09/24 01:38:45;;;;;;;1.60;1.50;;;;;;;4.33;100.00;96654.91;7410160;19;20762;-94
2023/09/24 01:42:01;;;;;;;2.43;1.50;;;;;;;3.07;100.00;96482.47;7415584;19;20385;-95
2023/09/24 01:46:01;;;;;;;;;;;;;;;;;;;;;
2023/09/24 01:49:01;;;;;;;2.10;1.90;;;;;;;4.04;100.00;96675.88;7413465;19;20386;-95
2023/09/24 01:52:22;;;;;;;;;;;;;;;;;;;;;
2023/09/24 01:55:40;;;;;;;2.83;2.20;;;;;;;3.84;100.00;96683.88;7411469;19;20412;-94
2023/09/24 01:59:00;;;;;;;2.53;2.10;;;;;;;4.05;100.00;96684.50;7414193;19;20388;-95
2023/09/24 02:05:46;;;;;;;9.80;3.17;;;;;;;1.70;100.00;96351.09;7408704;19;20424;-94
2023/09/24 02:08:58;;;;;;;2.93;2.70;;;;;;;2.49;100.00;96498.00;7412350;19;20400;-95
2023/09/24 02:12:10;;;;;;;5.13;3.10;;;;;;;3.66;100.00;96700.22;7413148;19;20390;-94
2023/09/24 02:15:20;;;;;;;4.67;3.80;;;;;;;2.32;100.00;96492.38;7407511;19;20420;-94
2023/09/24 02:18:31;;;;;;;6.70;4.67;;;;;;;3.85;100.00;96719.44;7410279;19;20412;-94
2023/09/24 02:22:29;;;;;;;4.10;3.63;;;;;;;4.06;100.00;96727.91;7404818;19;20413;-94
2023/09/24 02:28:38;;;;;;;3.83;3.43;;;;;;;2.83;100.00;96516.34;7407034;19;20927;-94
2023/09/24 02:31:12;;;;;;;3.63;3.20;;;;;;;3.60;100.00;96714.38;7409705;19;20381;-91
2023/09/24 02:34:16;;;;;;;3.87;2.80;;;;;;;3.81;100.00;96706.13;7426502;19;20421;-93
2023/09/24 02:36:48;;;;;;;3.57;3.27;;;;;;;1.92;100.00;96438.56;7427210;19;20384;-95
2023/09/24 02:39:22;;;;;;;6.10;3.20;;;;;;;2.10;100.00;96516.19;7427209;19;20450;-94
2023/09/24 02:42:29;;;;;;;4.13;3.50;;;;;;;3.32;100.00;96747.19;7426561;19;20376;-94
2023/09/24 02:45:22;;;;;;;3.37;3.07;;;;;;;3.56;100.00;96740.28;7406860;19;20425;-94
2023/09/24 02:48:53;;;;;;;3.60;3.17;;;;;;;1.21;100.00;96376.31;7418685;19;20379;-94
2023/09/24 02:51:56;;;;;;;3.90;3.60;;;;;;;3.83;100.00;96740.63;7429400;19;20393;-94
2023/09/24 02:54:50;;;;;;;4.60;4.23;;;;;;;3.84;100.00;96746.63;7425114;19;20408;-94
2023/09/24 03:01:33;;;;;;;4.17;3.87;;;;;;;3.60;100.00;96751.75;7411288;19;20943;-93
2023/09/24 03:04:58;;;;;;;5.30;3.80;;;;;;;3.40;100.00;96757.88;7410206;19;20425;-94
2023/09/24 03:07:54;;;;;;;6.73;4.30;;;;;;;2.24;100.00;96577.16;7410238;19;20400;-94
2023/09/24 03:11:27;;;;;;;3.47;3.17;;;;;;;3.60;100.00;96769.25;7410285;19;20510;-94
2023/09/24 03:14:46;;;;;;;4.50;4.10;;;;;;;3.62;100.00;96781.03;7414740;19;20409;-94
2023/09/24 03:17:28;;;;;;;9.60;4.30;;;;;;;3.51;100.00;96782.13;7408633;19;20396;-93
2023/09/24 03:20:00;;;;;;;7.03;3.87;;;;;;;3.62;100.00;96780.25;7410121;19;20388;-94
2023/09/24 03:22:48;;;;;;;4.43;3.20;;;;;;;2.45;100.00;96614.41;7421133;19;20416;-94
2023/09/24 03:25:19;;;;;;;7.63;3.40;;;;;;;1.78;100.00;96537.41;7422638;19;20453;-94
2023/09/24 03:28:01;;;;;;;6.97;3.80;;;;;;;3.35;100.00;96802.34;7411879;19;20888;-94
2023/09/24 03:30:40;;;;;;;9.13;3.93;;;;;;;2.60;100.00;96645.66;7412939;19;20391;-94
2023/09/24 03:33:20;;;;;;;10.80;5.00;;;;;;;3.44;100.00;96779.03;7413416;19;20403;-94
2023/09/24 03:36:01;;;;;;;7.03;3.17;;;;;;;3.56;100.00;96787.31;7410486;19;20393;-94
2023/09/24 03:38:32;;;;;;;3.07;2.57;;;;;;;3.77;100.00;96794.03;7407237;19;20384;-93
2023/09/24 03:41:20;;;;;;;11.40;3.37;;;;;;;2.44;100.00;96588.59;7409102;19;20395;-94
2023/09/24 03:43:55;;;;;;;5.03;3.60;;;;;;;1.87;100.00;96516.78;7409120;19;20408;-94
2023/09/24 03:46:27;;;;;;;4.93;3.63;;;;;;;3.73;100.00;96810.50;7408097;19;20396;-94
2023/09/24 03:49:08;;;;;;;10.20;3.67;;;;;;;3.52;100.00;96813.22;7408904;19;20392;-94
2023/09/24 03:52:04;;;;;;;4.40;3.37;;;;;;;3.48;100.00;96811.44;7407973;19;20433;-94
2023/09/24 03:54:52;;;;;;;6.57;3.83;;;;;;;3.40;100.00;96819.81;7406232;19;20412;-94
2023/09/24 03:58:07;;;;;;;5.20;3.50;;;;;;;3.32;100.00;96813.31;7404882;19;20395;-93
2023/09/24 04:01:50;;;;;;;7.63;4.70;;;;;;;2.00;100.00;96610.88;7409820;19;20396;-94
2023/09/24 04:08:39;;;;;;;5.97;3.23;;;;;;;3.54;100.00;96810.34;7408598;19;20368;-94
2023/09/24 04:11:26;;;;;;;5.73;4.50;;;;;;;3.69;100.00;96825.97;7416085;19;20392;-93
2023/09/24 04:14:09;;;;;;;13.33;6.83;;;;;;;3.82;100.00;96822.75;7429209;19;20420;-93
2023/09/24 04:16:49;;;;;;;14.40;8.50;;;;;;;3.69;100.00;96814.72;7429672;19;20401;-93
2023/09/24 04:19:31;;;;;;;19.27;8.30;;;;;;;1.33;100.00;96431.47;7428487;19;20381;-93
2023/09/24 04:22:30;;;;;;;14.40;7.77;;;;;;;3.70;100.00;96822.28;7416845;19;20411;-93
2023/09/24 04:25:20;;;;;;;8.90;4.30;;;;;;;3.80;100.00;96830.09;7409606;19;20408;-94
2023/09/24 04:28:13;;;;;;;11.40;4.37;;;;;;;3.80;100.00;96834.53;7408511;19;20385;-93
2023/09/24 04:30:56;;;;;;;13.67;6.30;;;;;;;2.42;100.00;96632.44;7409134;19;20492;-94
2023/09/24 04:33:49;;;;;;;11.83;5.90;;;;;;;3.66;100.00;96836.19;7408258;19;20392;-93
2023/09/24 04:37:02;;;;;;;28.93;6.33;;;;;;;2.35;100.00;96654.34;7407234;19;20400;-94
2023/09/24 04:40:05;;;;;;;11.00;5.07;;;;;;;3.73;100.00;96865.41;7407360;19;20393;-94
2023/09/24 04:42:47;;;;;;;13.43;6.77;;;;;;;1.84;100.00;96582.47;7408306;19;20383;-94
2023/09/24 04:46:01;;;;;;;;;;;;;;;;;;;;;
2023/09/24 04:49:10;;;;;;;24.77;20.60;;;;;;;3.72;100.00;96848.94;7408362;19;20376;-94
2023/09/24 04:52:30;;;;;;;19.77;8.17;;;;;;;2.65;100.00;96723.94;7408179;19;20376;-94
2023/09/24 04:55:48;;;;;;;;;;;;;;;;;;;;;
2023/09/24 04:58:51;;;;;;;9.47;5.43;;;;;;;1.83;100.00;96672.94;7402700;19;20734;-93
2023/09/24 05:02:23;;;;;;;12.73;4.70;;;;;;;1.95;100.00;96654.41;7404343;19;20397;-93
2023/09/24 05:05:56;;;;;;;13.03;5.40;;;;;;;0.95;100.00;96522.13;7405162;19;20408;-93
2023/09/24 05:08:58;;;;;;;14.47;6.83;;;;;;;3.45;100.00;96859.00;7404514;19;20396;-93
2023/09/24 05:12:12;;;;;;;19.50;10.77;;;;;;;3.39;100.00;96870.53;7404745;19;20377;-94
2023/09/24 05:15:09;;;;;;;15.37;7.20;;;;;;;3.43;100.00;96882.00;7402252;19;20412;-93
2023/09/24 05:18:08;;;;;;;13.70;3.70;;;;;;;3.34;100.00;96884.41;7403924;19;20399;-94
2023/09/24 05:21:45;;;;;;;8.03;4.90;;;;;;;1.41;100.00;96613.25;7403154;19;20416;-93
2023/09/24 05:24:32;;;;;;;15.00;4.90;;;;;;;3.08;100.00;96862.78;7401980;19;20432;-94
2023/09/24 05:27:21;;;;;;;8.90;4.10;;;;;;;3.36;100.00;96905.03;7408333;19;20412;-94
2023/09/24 05:30:01;;;;;;;23.53;6.50;;;;;;;3.39;100.00;96897.44;7411742;19;20444;-93
2023/09/24 05:32:46;;;;;;;;;;;;;;;;;;;;;
2023/09/24 09:39:57;;;;;;;4.67;2.67;;;;;;;10.63;100.00;96989.00;7428964;19;20347;-91
2023/09/24 09:42:30;;;;;;;3.33;2.97;;;;;;;11.17;100.00;97025.75;7428387;19;20394;-93
2023/09/24 09:45:07;;;;;;;3.30;2.80;;;;;;;10.45;100.00;96896.78;7429010;19;20429;-93
2023/09/24 09:47:53;;;;;;;6.30;2.50;;;;;;;11.52;100.00;97015.91;7415602;19;20424;-93
2023/09/24 09:50:24;;;;;;;2.53;2.17;;;;;;;10.94;100.00;96935.94;7403529;19;20368;-93
2023/09/24 09:52:54;;;;;;;2.90;2.13;;;;;;;10.64;100.00;96855.69;7401240;19;20528;-94
2023/09/24 09:55:23;;;;;;;2.87;2.67;;;;;;;10.68;100.00;96881.50;7414265;19;20376;-93
2023/09/24 09:57:50;;;;;;;3.23;2.30;;;;;;;10.01;100.00;96780.44;7422051;19;20425;-94
2023/09/24 10:00:18;;;;;;;3.70;2.57;;;;;;;11.15;100.00;96973.13;7420205;19;20384;-93
2023/09/24 10:02:47;;;;;;;3.57;2.73;;;;;;;10.54;100.00;96824.28;7412441;19;20468;-93
2023/09/24 10:05:17;;;;;;;3.00;2.20;;;;;;;11.03;100.00;96879.59;7398648;19;20395;-93
2023/09/24 10:07:44;;;;;;;4.40;2.43;;;;;;;11.14;100.00;96883.47;7396891;19;20388;-93
2023/09/24 10:10:29;;;;;;;2.67;2.20;;;;;;;12.02;100.00;97016.13;7396293;19;20381;-94
2023/09/24 10:12:58;;;;;;;2.90;2.00;;;;;;;10.94;100.00;96861.09;7402154;19;20958;-94
2023/09/24 10:15:30;;;;;;;3.37;2.00;;;;;;;11.59;100.00;96922.72;7397506;19;20924;-94
2023/09/24 10:18:13;;;;;;;2.20;1.90;;;;;;;11.81;100.00;96952.44;7398300;19;20506;-94
2023/09/24 10:20:55;;;;;;;2.73;1.90;;;;;;;12.26;100.00;97017.41;7399790;19;20392;-94
2023/09/24 10:23:29;;;;;;;2.03;1.93;;;;;;;12.45;100.00;97020.44;7396977;19;20376;-94
2023/09/24 10:26:02;;;;;;;2.90;2.20;;;;;;;11.97;100.00;96939.41;7397216;19;20401;-94
2023/09/24 10:28:48;;;;;;;3.03;2.50;;;;;;;12.13;100.00;96937.78;7395328;19;20397;-93
2023/09/24 10:31:26;;;;;;;4.40;1.60;;;;;;;12.38;100.00;96938.72;7396617;19;20393;-93
2023/09/24 10:34:16;;;;;;;2.60;2.40;;;;;;;11.21;100.00;96769.94;7397394;19;20392;-94
2023/09/24 10:37:15;;;;;;;1.53;1.43;;;;;;;10.90;100.00;96741.91;7396653;19;20440;-94
2023/09/24 10:40:03;;;;;;;2.53;2.33;;;;;;;13.03;100.00;96958.50;7397533;19;20371;-94
2023/09/24 10:42:42;;;;;;;3.13;2.60;;;;;;;12.82;100.00;96907.34;7396899;19;20396;-94
2023/09/24 10:45:30;;;;;;;2.07;1.90;;;;;;;13.08;100.00;96908.94;7399295;19;20373;-93
2023/09/24 10:48:05;;;;;;;3.57;1.80;;;;;;;13.99;100.00;97021.31;7395976;19;20416;-94
2023/09/24 10:51:09;;;;;;;1.83;1.70;;;;;;;12.92;100.00;96892.88;7398535;19;20396;-93
2023/09/24 10:53:41;;;;;;;4.33;2.67;;;;;;;12.14;100.00;96793.53;7397543;19;20376;-93
2023/09/24 10:56:20;;;;;;;2.77;2.10;;;;;;;13.29;100.00;96891.91;7396365;19;20380;-93
2023/09/24 10:58:53;;;;;;;4.50;2.23;;;;;;;13.88;100.00;96938.56;7396919;19;20396;-93
2023/09/24 11:01:34;;;;;;;2.97;2.00;;;;;;;13.32;100.00;96882.50;7395618;19;20774;-93
2023/09/24 11:04:27;;;;;;;1.87;1.77;;;;;;;12.64;100.00;96730.81;7396292;19;20461;-93
2023/09/24 11:07:22;;;;;;;;;;;;;;;;;;;;;
2023/09/24 11:10:05;;;;;;;4.77;2.30;;;;;;;13.67;100.00;96898.81;7401676;19;20384;-93
2023/09/24 11:12:38;;;;;;;2.23;1.60;;;;;;;12.87;100.00;96785.03;7402554;19;20396;-92
2023/09/24 11:15:13;;;;;;;5.20;2.40;;;;;;;12.89;100.00;96843.09;7407192;19;20390;-91
2023/09/24 11:17:55;;;;;;;2.93;2.00;;;;;;;12.76;100.00;96868.81;7406556;19;20397;-92
2023/09/24 11:20:42;;;;;;;3.60;2.00;;;;;;;12.53;100.00;96876.34;7409779;19;20376;-92
2023/09/24 11:23:53;;;;;;;;;;;;;;;;;;;;;
2023/09/24 11:26:35;;;;;;;3.23;1.80;;;;;;;11.53;100.00;96734.09;7405722;19;20397;-93
2023/09/24 11:29:11;;;;;;;4.33;2.00;;;;;;;12.34;100.00;96847.66;7420109;19;20380;-94
2023/09/24 11:31:50;;;;;;;2.07;1.97;;;;;;;11.80;100.00;96724.91;7426884;19;20380;-95
2023/09/24 11:34:32;;;;;;;2.00;1.90;;;;;;;11.78;100.00;96719.91;7425031;19;20373;-94
2023/09/24 11:37:10;;;;;;;2.40;1.80;;;;;;;11.84;100.00;96715.97;7415257;19;20476;-95
2023/09/24 11:40:03;;;;;;;3.17;1.93;;;;;;;12.84;100.00;96859.25;7417875;19;20903;-95
2023/09/24 11:42:50;;;;;;;2.70;1.73;;;;;;;12.66;100.00;96837.38;7417663;19;20365;-92
2023/09/24 11:45:34;;;;;;;1.90;1.80;;;;;;;12.71;100.00;96826.59;7417036;19;20373;-93
2023/09/24 11:48:23;;;;;;;2.33;2.13;;;;;;;12.24;100.00;96702.22;7416544;19;20417;-94
2023/09/24 11:51:32;;;;;;;2.77;2.10;;;;;;;13.72;100.00;96958.94;7417615;19;20424;-95
2023/09/24 11:54:30;;;;;;;1.80;1.70;;;;;;;13.10;100.00;96882.88;7414585;19;20396;-95
2023/09/24 11:57:15;;;;;;;3.47;1.83;;;;;;;13.09;100.00;96852.91;7414513;19;20427;-95
2023/09/24 11:59:51;;;;;;;1.60;1.50;;;;;;;12.92;100.00;96800.75;7417054;19;20392;-94
2023/09/24 12:02:20;;;;;;;1.90;1.80;;;;;;;12.41;100.00;96709.22;7419111;19;20421;-94
2023/09/24 12:04:55;;;;;;;2.60;1.97;;;;;;;13.66;100.00;96852.09;7418346;19;20392;-95
2023/09/24 12:07:31;;;;;;;2.47;2.27;;;;;;;15.49;100.00;97005.22;7413553;19;20436;-95
2023/09/24 12:10:04;;;;;;;4.10;2.87;;;;;;;15.68;100.00;96877.41;7426656;19;20405;-95
2023/09/24 12:12:35;;;;;;;2.47;1.77;;;;;;;15.15;100.00;96737.56;7429774;19;20419;-94
2023/09/24 12:15:09;;;;;;;3.20;1.60;;;;;;;16.15;94.42;96783.16;7428998;19;20402;-94
2023/09/24 12:17:37;;;;;;;5.70;1.80;;;;;;;17.33;93.34;96871.59;7427799;19;20468;-94
2023/09/24 12:20:05;;;;;;;2.37;1.80;;;;;;;17.17;93.14;96772.06;7428356;19;20441;-95
2023/09/24 12:22:40;;;;;;;1.73;1.30;;;;;;;17.56;92.13;97011.44;7425730;19;20377;-95
2023/09/24 12:25:14;;;;;;;1.80;1.70;;;;;;;16.60;93.84;96888.56;7426596;19;20388;-95
2023/09/24 12:27:46;;;;;;;4.20;1.70;;;;;;;16.38;98.20;96888.09;7426353;19;20408;-94
2023/09/24 12:30:27;;;;;;;1.40;1.30;;;;;;;15.26;100.00;96781.97;7425755;19;20400;-95
2023/09/24 12:33:32;;;;;;;1.80;1.70;;;;;;;13.78;100.00;96676.66;7424085;19;20365;-95
2023/09/24 12:36:03;;;;;;;4.50;2.07;;;;;;;13.20;100.00;96739.84;7418797;19;20412;-95
2023/09/24 12:38:55;;;;;;;2.00;1.83;;;;;;;14.05;100.00;96858.59;7422135;19;20400;-94
2023/09/24 12:42:18;;;;;;;3.10;1.67;;;;;;;13.96;100.00;96826.03;7422828;19;20401;-95
2023/09/24 12:44:52;;;;;;;2.63;1.70;;;;;;;13.59;100.00;96783.53;7424153;19;20425;-94
2023/09/24 12:47:20;;;;;;;1.50;1.40;;;;;;;13.17;100.00;96753.00;7423205;19;20413;-94
2023/09/24 12:50:13;;;;;;;4.03;1.50;;;;;;;12.69;100.00;96685.53;7426419;19;20391;-95
2023/09/24 12:52:51;;;;;;;1.60;1.50;;;;;;;14.07;100.00;96805.06;7426534;19;20372;-95
2023/09/24 12:55:27;;;;;;;3.00;1.90;;;;;;;14.06;100.00;96782.25;7425105;19;20392;-95
2023/09/24 12:58:05;;;;;;;1.90;1.70;;;;;;;13.80;100.00;96778.09;7425574;19;20411;-95
2023/09/24 13:01:05;;;;;;;1.83;1.73;;;;;;;15.01;100.00;96983.00;7428996;19;20417;-95
2023/09/24 13:04:09;;;;;;;1.93;1.60;;;;;;;13.96;100.00;96827.91;7429719;19;20426;-92
2023/09/24 13:06:58;;;;;;;2.63;2.20;;;;;;;13.56;100.00;96725.00;7427328;19;20492;-96
2023/09/24 13:09:40;;;;;;;5.57;2.97;;;;;;;15.78;100.00;96919.56;7424901;19;20380;-95
2023/09/24 13:12:15;;;;;;;2.43;1.73;;;;;;;16.52;100.00;96936.44;7425387;19;20384;-95
2023/09/24 13:14:57;;;;;;;2.87;1.43;;;;;;;16.51;97.73;96817.44;7424485;19;20409;-94
2023/09/24 13:17:31;;;;;;;1.70;1.60;;;;;;;16.91;95.78;96762.09;7423131;19;20413;-94
2023/09/24 13:20:03;;;;;;;3.67;1.60;;;;;;;17.37;87.13;96790.34;7425730;19;20390;-94
2023/09/24 13:22:35;;;;;;;2.20;1.60;;;;;;;18.90;81.71;96867.34;7426774;19;20384;-94
2023/09/24 13:25:03;;;;;;;1.70;1.60;;;;;;;18.09;77.28;96807.44;7425456;19;20380;-95
2023/09/24 13:27:37;;;;;;;1.83;1.50;;;;;;;17.65;77.47;96699.06;7421622;19;20408;-94
2023/09/24 13:30:07;;;;;;;1.27;1.17;;;;;;;18.38;73.46;96728.22;7421685;19;20440;-94
2023/09/24 13:32:49;;;;;;;1.77;1.67;;;;;;;17.60;75.07;96773.47;7424874;19;20365;-94
2023/09/24 13:35:29;;;;;;;2.97;1.30;;;;;;;17.18;76.53;96800.31;7424164;19;20376;-94
2023/09/24 13:40:56;;;;;;;3.13;1.57;;;;;;;17.21;83.20;96946.59;7422116;19;20405;-95
2023/09/24 13:43:25;;;;;;;1.77;1.33;;;;;;;14.99;84.87;96709.03;7423928;19;20428;-94
2023/09/24 13:45:57;;;;;;;1.53;1.40;;;;;;;15.46;88.71;96804.13;7422290;19;20397;-95
2023/09/24 13:48:27;;;;;;;1.50;1.40;;;;;;;14.68;98.32;96765.69;7422695;19;20477;-94
2023/09/24 13:51:01;;;;;;;3.40;1.63;;;;;;;14.90;94.68;96809.63;7419352;19;20393;-94
2023/09/24 13:53:32;;;;;;;1.60;1.47;;;;;;;14.53;94.97;96818.91;7413871;19;20413;-94
2023/09/24 13:56:22;;;;;;;1.73;1.63;;;;;;;14.27;99.34;96785.50;7412287;19;20390;-94
2023/09/24 13:58:58;;;;;;;2.07;1.20;;;;;;;14.92;100.00;96849.22;7412190;19;20388;-94
2023/09/24 14:01:53;;;;;;;1.87;1.50;;;;;;;13.24;100.00;96644.38;7409420;19;20394;-94
2023/09/24 14:04:27;;;;;;;2.17;1.60;;;;;;;14.02;100.00;96792.78;7412031;19;20379;-94
2023/09/24 14:07:11;;;;;;;2.03;1.77;;;;;;;15.54;89.92;96688.56;7411464;19;20404;-94
2023/09/24 14:12:59;;;;;;;2.10;1.50;;;;;;;17.89;79.00;96708.53;7416124;19;20409;-94
2023/09/24 14:15:46;;;;;;;1.40;1.30;;;;;;;17.76;76.45;96717.94;7417330;19;20376;-94
2023/09/24 14:18:38;;;;;;;1.50;1.40;;;;;;;16.38;82.11;96703.94;7416182;19;20440;-95
2023/09/24 14:21:31;;;;;;;2.60;1.20;;;;;;;15.24;84.22;96717.63;7416364;19;20373;-94
2023/09/24 14:24:40;;;;;;;1.40;1.30;;;;;;;18.51;77.29;96984.69;7414170;19;20388;-94
2023/09/24 14:27:43;;;;;;;2.13;1.30;;;;;;;16.97;75.39;96752.66;7418069;19;20412;-95
2023/09/24 14:30:39;;;;;;;1.70;1.50;;;;;;;17.97;77.23;96845.88;7417846;19;20411;-95
2023/09/24 14:33:23;;;;;;;1.40;1.30;;;;;;;17.72;76.41;96926.53;7416606;19;20388;-95
2023/09/24 14:36:10;;;;;;;1.27;1.17;;;;;;;15.74;84.59;96760.59;7410527;19;20389;-95
2023/09/24 14:38:43;;;;;;;1.43;1.33;;;;;;;14.12;88.02;96648.69;7412347;19;20380;-94
2023/09/24 14:41:14;;;;;;;3.37;1.40;;;;;;;14.78;91.46;96799.81;7428060;19;20373;-93
2023/09/24 14:44:22;;;;;;;1.50;1.40;;;;;;;14.27;96.73;96739.50;7431275;19;20381;-94
2023/09/24 14:46:56;;;;;;;1.43;1.33;;;;;;;14.41;100.00;96775.22;7418896;19;20471;-94
2023/09/24 14:49:31;;;;;;;3.10;1.47;;;;;;;14.96;97.15;96768.31;7417716;19;20368;-94
2023/09/24 14:52:12;;;;;;;3.00;1.37;;;;;;;15.73;92.73;96834.47;7417674;19;20388;-94
2023/09/24 14:54:54;;;;;;;2.07;1.67;;;;;;;16.38;86.92;96743.97;7416580;19;20379;-94
2023/09/24 14:57:39;;;;;;;1.50;1.40;;;;;;;16.32;86.11;96795.34;7417180;19;20437;-94
2023/09/24 15:00:16;;;;;;;1.90;1.80;;;;;;;16.93;82.45;96776.63;7418084;19;20425;-94
2023/09/24 15:02:59;;;;;;;2.40;1.37;;;;;;;16.54;81.53;96693.91;7418255;19;20372;-94
2023/09/24 15:05:50;;;;;;;1.60;1.40;;;;;;;17.43;77.34;96790.81;7421771;19;20467;-95
2023/09/24 15:08:36;;;;;;;2.80;1.03;;;;;;;16.88;75.00;96754.81;7423657;19;20388;-93
2023/09/24 15:11:19;;;;;;;1.97;1.47;;;;;;;17.00;75.63;96709.22;7421905;19;20395;-94
2023/09/24 15:13:49;;;;;;;1.50;1.40;;;;;;;17.04;73.34;96644.00;7423733;19;20400;-94
2023/09/24 15:16:20;;;;;;;1.70;1.60;;;;;;;18.59;71.13;96774.75;7423298;19;20409;-94
2023/09/24 15:18:57;;;;;;;1.43;1.33;;;;;;;17.79;71.53;96823.47;7425536;19;20938;-94
2023/09/24 15:21:30;;;;;;;2.47;1.10;;;;;;;17.62;68.19;96694.41;7423393;19;20392;-94
2023/09/24 15:24:12;;;;;;;1.10;1.00;;;;;;;18.40;68.77;96788.28;7421940;19;20412;-94
2023/09/24 15:26:40;;;;;;;1.63;1.10;;;;;;;16.27;70.93;96673.63;7423766;19;20425;-94
2023/09/24 15:29:13;;;;;;;1.63;1.20;;;;;;;16.64;73.20;96803.94;7422164;19;20385;-94
2023/09/24 15:31:51;;;;;;;1.50;1.30;;;;;;;14.66;75.68;96616.22;7419491;19;20389;-94
2023/09/24 15:34:44;;;;;;;1.63;1.20;;;;;;;15.93;79.73;96875.31;7416638;19;20395;-95
2023/09/24 15:37:21;;;;;;;;;;;;;;;;;;;;;
2023/09/24 15:39:54;;;;;;;1.67;1.43;;;;;;;14.87;85.39;96793.56;7411521;19;20469;-95
2023/09/24 15:42:24;;;;;;;2.23;1.63;;;;;;;14.43;87.78;96743.75;7414904;19;20399;-94
2023/09/24 15:44:52;;;;;;;2.43;2.27;;;;;;;13.70;92.17;96674.91;7415806;19;20411;-93
2023/09/24 15:47:30;;;;;;;5.43;1.67;;;;;;;14.39;93.22;96785.44;7409250;19;20444;-93
2023/09/24 15:50:05;;;;;;;1.53;1.40;;;;;;;13.21;96.64;96647.69;7413122;19;20369;-96
2023/09/24 15:52:40;;;;;;;2.60;2.40;;;;;;;14.03;99.43;96759.78;7410635;19;20436;-93
2023/09/24 15:55:08;;;;;;;2.90;2.00;;;;;;;14.77;100.00;96888.00;7410225;19;20396;-93
2023/09/24 15:57:37;;;;;;;2.23;2.03;;;;;;;13.63;100.00;96735.06;7407174;19;20424;-93
2023/09/24 16:00:11;;;;;;;2.33;2.00;;;;;;;13.56;100.00;96719.69;7410814;19;20393;-94
2023/09/24 16:02:40;;;;;;;2.70;1.70;;;;;;;13.95;100.00;96781.94;7412786;19;20379;-94
2023/09/24 16:05:09;;;;;;;2.10;1.90;;;;;;;14.49;100.00;96878.13;7412965;19;20377;-94
2023/09/24 16:07:45;;;;;;;1.70;1.60;;;;;;;12.69;100.00;96571.44;7408728;19;20738;-95
2023/09/24 16:10:15;;;;;;;1.97;1.87;;;;;;;13.39;100.00;96664.16;7419116;19;20376;-95
2023/09/24 16:12:43;;;;;;;3.50;2.83;;;;;;;13.56;100.00;96717.78;7412309;19;20385;-93
2023/09/24 16:15:10;;;;;;;1.97;1.80;;;;;;;13.77;100.00;96732.81;7418336;19;20544;-94
2023/09/24 16:17:43;;;;;;;3.43;1.67;;;;;;;13.96;100.00;96782.72;7408204;19;20508;-94
2023/09/24 16:20:33;;;;;;;1.87;1.73;;;;;;;14.49;100.00;96930.56;7411163;19;20409;-94
2023/09/24 16:23:47;;;;;;;1.70;1.60;;;;;;;13.41;100.00;96776.16;7411637;19;20420;-94
2023/09/24 16:26:18;;;;;;;1.60;1.50;;;;;;;11.96;100.00;96603.97;7411940;19;20384;-94
2023/09/24 16:28:55;;;;;;;2.40;1.93;;;;;;;12.88;100.00;96741.47;7415787;19;20412;-93
2023/09/24 16:31:40;;;;;;;1.63;1.53;;;;;;;11.95;100.00;96636.88;7418248;19;20408;-94
2023/09/24 16:34:28;;;;;;;2.10;1.90;;;;;;;11.72;100.00;96619.75;7416470;19;20384;-95
2023/09/24 16:37:22;;;;;;;5.00;1.70;;;;;;;13.39;100.00;96874.78;7415275;19;20804;-94
2023/09/24 16:40:09;;;;;;;1.83;1.73;;;;;;;11.92;100.00;96663.25;7414556;19;20408;-95
2023/09/24 16:43:09;;;;;;;1.60;1.50;;;;;;;12.30;100.00;96750.53;7413578;19;20421;-95
2023/09/24 16:46:06;;;;;;;2.20;2.00;;;;;;;13.51;100.00;96948.41;7413797;19;20377;-95
2023/09/24 16:49:44;;;;;;;1.70;1.60;;;;;;;11.36;100.00;96655.56;7413767;19;20424;-94
2023/09/24 16:53:03;;;;;;;;;;;;;;;;;;;;;
2023/09/24 16:56:29;;;;;;;2.53;1.80;;;;;;;10.77;100.00;96613.28;7414623;19;20377;-94
2023/09/24 16:59:26;;;;;;;1.87;1.50;;;;;;;11.74;100.00;96771.97;7411488;19;20377;-94
2023/09/24 17:02:23;;;;;;;1.50;1.40;;;;;;;11.64;100.00;96775.00;7409899;19;20400;-94
2023/09/24 17:05:45;;;;;;;;;;;;;;;;;;;;;
2023/09/24 17:08:41;;;;;;;1.80;1.53;;;;;;;10.22;100.00;96602.81;7407410;19;20411;-94
2023/09/24 17:11:49;;;;;;;2.20;1.70;;;;;;;10.69;100.00;96692.69;7405645;19;20418;-94
2023/09/24 17:14:39;;;;;;;2.70;1.67;;;;;;;10.33;100.00;96648.94;7412075;19;20913;-94
2023/09/24 17:20:52;;;;;;;;;;;;;;;;;;;;;
2023/09/24 17:24:41;;;;;;;;;;;;;;;;;;;;;
2023/09/24 17:32:40;;;;;;;3.90;2.53;;;;;;;11.66;100.00;96945.00;7426051;19;20420;-93
2023/09/24 17:36:21;;;;;;;;;;;;;;;;;;;;;
2023/09/24 17:39:57;;;;;;;3.40;2.40;;;;;;;9.02;100.00;96615.78;7425446;19;20384;-92
2023/09/24 17:42:50;;;;;;;2.70;2.50;;;;;;;10.22;100.00;96814.22;7396741;19;20401;-93
2023/09/24 17:45:29;;;;;;;2.60;2.40;;;;;;;9.78;100.00;96769.25;7397162;19;20409;-93
2023/09/24 17:48:40;;;;;;;2.77;2.57;;;;;;;8.57;100.00;96621.28;7394544;19;20416;-93
2023/09/24 17:51:53;;;;;;;3.20;3.00;;;;;;;8.48;100.00;96624.97;7398760;19;20393;-93
2023/09/24 17:55:09;;;;;;;;;;;;;;;;;;;;;
2023/09/24 20:38:40;;;;;;;5.33;3.43;;;;;;;7.10;100.00;96996.38;7417047;19;20440;-94
2023/09/24 20:41:50;;;;;;;3.23;3.03;;;;;;;5.96;100.00;96807.59;7419801;19;20369;-94
2023/09/24 20:44:36;;;;;;;3.63;3.33;;;;;;;6.02;100.00;96793.34;7416424;19;20392;-94
2023/09/24 20:47:24;;;;;;;7.73;4.53;;;;;;;6.17;100.00;96802.84;7416362;19;20385;-94